sensor_id;sensor_type;location;lat;lon;timestamp;P1;durP1;ratioP1;P2;durP2;ratioP2
24008;SDS011;12217;50.792;4.372;2023-04-03T00:01:06;15.45;;;13.00;;
24008;SDS011;12217;50.792;4.372;2023-04-03T00:03:32;15.85;;;12.73;;
24008;SDS011;12217;50.792;4.372;2023-04-03T00:05:58;15.88;;;12.65;;
24008;SDS011;12217;50.792;4.372;2023-04-03T00:08:25;14.55;;;12.05;;
24008;SDS011;12217;50.792;4.372;2023-04-03T00:10:50;14.90;;;13.18;;
24008;SDS011;12217;50.792;4.372;2023-04-03T00:13:16;16.35;;;13.15;;
24008;SDS011;12217;50.792;4.372;2023-04-03T00:15:42;18.20;;;13.48;;
24008;SDS011;12217;50.792;4.372;2023-04-03T00:18:08;16.83;;;13.98;;
24008;SDS011;12217;50.792;4.372;2023-04-03T00:20:34;17.08;;;12.77;;
24008;SDS011;12217;50.792;4.372;2023-04-03T00:23:00;17.63;;;13.48;;
24008;SDS011;12217;50.792;4.372;2023-04-03T00:25:27;15.25;;;12.95;;
24008;SDS011;12217;50.792;4.372;2023-04-03T00:27:52;13.70;;;12.30;;
24008;SDS011;12217;50.792;4.372;2023-04-03T00:30:19;15.43;;;12.57;;
24008;SDS011;12217;50.792;4.372;2023-04-03T00:32:47;17.60;;;12.48;;
24008;SDS011;12217;50.792;4.372;2023-04-03T00:35:14;13.20;;;11.65;;
24008;SDS011;12217;50.792;4.372;2023-04-03T00:37:41;15.45;;;12.23;;
24008;SDS011;12217;50.792;4.372;2023-04-03T00:40:07;16.73;;;12.65;;
24008;SDS011;12217;50.792;4.372;2023-04-03T00:42:35;17.27;;;11.95;;
24008;SDS011;12217;50.792;4.372;2023-04-03T00:47:27;14.30;;;12.77;;
24008;SDS011;12217;50.792;4.372;2023-04-03T00:49:54;18.48;;;12.48;;
24008;SDS011;12217;50.792;4.372;2023-04-03T00:52:21;16.08;;;12.05;;
24008;SDS011;12217;50.792;4.372;2023-04-03T00:57:19;15.85;;;12.52;;
24008;SDS011;12217;50.792;4.372;2023-04-03T00:59:48;14.80;;;12.13;;
24008;SDS011;12217;50.792;4.372;2023-04-03T01:02:16;14.07;;;12.13;;
24008;SDS011;12217;50.792;4.372;2023-04-03T01:04:43;14.48;;;12.73;;
24008;SDS011;12217;50.792;4.372;2023-04-03T01:09:47;13.35;;;11.82;;
24008;SDS011;12217;50.792;4.372;2023-04-03T01:14:44;15.23;;;11.52;;
24008;SDS011;12217;50.792;4.372;2023-04-03T01:17:26;13.18;;;11.15;;
24008;SDS011;12217;50.792;4.372;2023-04-03T01:22:54;14.75;;;11.65;;
24008;SDS011;12217;50.792;4.372;2023-04-03T01:25:39;13.93;;;11.82;;
24008;SDS011;12217;50.792;4.372;2023-04-03T01:28:09;13.05;;;10.68;;
24008;SDS011;12217;50.792;4.372;2023-04-03T01:30:41;11.65;;;10.43;;
24008;SDS011;12217;50.792;4.372;2023-04-03T01:33:12;14.80;;;10.98;;
24008;SDS011;12217;50.792;4.372;2023-04-03T01:35:38;13.00;;;11.38;;
24008;SDS011;12217;50.792;4.372;2023-04-03T01:38:03;13.98;;;11.07;;
24008;SDS011;12217;50.792;4.372;2023-04-03T01:40:29;14.98;;;11.05;;
24008;SDS011;12217;50.792;4.372;2023-04-03T01:42:55;13.93;;;10.38;;
24008;SDS011;12217;50.792;4.372;2023-04-03T01:45:20;12.02;;;10.52;;
24008;SDS011;12217;50.792;4.372;2023-04-03T01:47:46;12.50;;;10.50;;
24008;SDS011;12217;50.792;4.372;2023-04-03T01:50:11;12.23;;;10.27;;
24008;SDS011;12217;50.792;4.372;2023-04-03T01:52:37;12.55;;;9.90;;
24008;SDS011;12217;50.792;4.372;2023-04-03T01:55:03;13.43;;;9.90;;
24008;SDS011;12217;50.792;4.372;2023-04-03T01:57:28;13.68;;;10.35;;
24008;SDS011;12217;50.792;4.372;2023-04-03T01:59:54;12.88;;;10.48;;
24008;SDS011;12217;50.792;4.372;2023-04-03T02:02:20;14.68;;;10.48;;
24008;SDS011;12217;50.792;4.372;2023-04-03T02:04:45;11.75;;;10.30;;
24008;SDS011;12217;50.792;4.372;2023-04-03T02:07:11;13.43;;;10.30;;
24008;SDS011;12217;50.792;4.372;2023-04-03T02:09:37;16.33;;;10.32;;
24008;SDS011;12217;50.792;4.372;2023-04-03T02:12:02;12.85;;;10.38;;
24008;SDS011;12217;50.792;4.372;2023-04-03T02:14:28;12.63;;;10.40;;
24008;SDS011;12217;50.792;4.372;2023-04-03T02:16:54;11.63;;;10.25;;
24008;SDS011;12217;50.792;4.372;2023-04-03T02:19:20;13.00;;;10.27;;
24008;SDS011;12217;50.792;4.372;2023-04-03T02:21:45;13.02;;;10.18;;
24008;SDS011;12217;50.792;4.372;2023-04-03T02:24:11;14.82;;;10.75;;
24008;SDS011;12217;50.792;4.372;2023-04-03T02:26:36;15.60;;;10.57;;
24008;SDS011;12217;50.792;4.372;2023-04-03T02:29:02;14.98;;;10.20;;
24008;SDS011;12217;50.792;4.372;2023-04-03T02:31:28;16.25;;;11.25;;
24008;SDS011;12217;50.792;4.372;2023-04-03T02:33:53;12.70;;;10.55;;
24008;SDS011;12217;50.792;4.372;2023-04-03T02:36:19;13.10;;;10.98;;
24008;SDS011;12217;50.792;4.372;2023-04-03T02:38:45;14.05;;;10.73;;
24008;SDS011;12217;50.792;4.372;2023-04-03T02:41:11;14.75;;;11.50;;
24008;SDS011;12217;50.792;4.372;2023-04-03T02:43:37;11.68;;;10.48;;
24008;SDS011;12217;50.792;4.372;2023-04-03T02:46:04;12.15;;;10.60;;
24008;SDS011;12217;50.792;4.372;2023-04-03T02:48:30;13.02;;;10.63;;
24008;SDS011;12217;50.792;4.372;2023-04-03T02:50:56;12.88;;;10.75;;
24008;SDS011;12217;50.792;4.372;2023-04-03T02:53:21;12.70;;;10.23;;
24008;SDS011;12217;50.792;4.372;2023-04-03T02:55:48;12.98;;;10.82;;
24008;SDS011;12217;50.792;4.372;2023-04-03T02:58:14;12.65;;;10.80;;
24008;SDS011;12217;50.792;4.372;2023-04-03T03:00:40;12.60;;;10.40;;
24008;SDS011;12217;50.792;4.372;2023-04-03T03:03:05;13.40;;;10.52;;
24008;SDS011;12217;50.792;4.372;2023-04-03T03:05:31;13.20;;;10.38;;
24008;SDS011;12217;50.792;4.372;2023-04-03T03:07:57;12.23;;;10.30;;
24008;SDS011;12217;50.792;4.372;2023-04-03T03:10:23;12.65;;;11.10;;
24008;SDS011;12217;50.792;4.372;2023-04-03T03:12:48;15.75;;;11.23;;
24008;SDS011;12217;50.792;4.372;2023-04-03T03:15:14;12.88;;;10.63;;
24008;SDS011;12217;50.792;4.372;2023-04-03T03:17:41;14.10;;;10.52;;
24008;SDS011;12217;50.792;4.372;2023-04-03T03:20:06;13.73;;;10.70;;
24008;SDS011;12217;50.792;4.372;2023-04-03T03:22:33;15.15;;;10.70;;
24008;SDS011;12217;50.792;4.372;2023-04-03T03:24:59;11.88;;;10.65;;
24008;SDS011;12217;50.792;4.372;2023-04-03T03:27:25;13.20;;;10.68;;
24008;SDS011;12217;50.792;4.372;2023-04-03T03:29:51;12.57;;;10.80;;
24008;SDS011;12217;50.792;4.372;2023-04-03T03:32:16;13.13;;;10.73;;
24008;SDS011;12217;50.792;4.372;2023-04-03T03:34:42;13.88;;;10.88;;
24008;SDS011;12217;50.792;4.372;2023-04-03T03:37:08;12.95;;;11.20;;
24008;SDS011;12217;50.792;4.372;2023-04-03T03:39:33;13.05;;;10.90;;
24008;SDS011;12217;50.792;4.372;2023-04-03T03:41:59;13.77;;;11.55;;
24008;SDS011;12217;50.792;4.372;2023-04-03T03:44:24;11.98;;;10.57;;
24008;SDS011;12217;50.792;4.372;2023-04-03T03:46:50;11.98;;;10.32;;
24008;SDS011;12217;50.792;4.372;2023-04-03T03:49:16;13.25;;;10.55;;
24008;SDS011;12217;50.792;4.372;2023-04-03T03:51:41;14.35;;;11.32;;
24008;SDS011;12217;50.792;4.372;2023-04-03T03:54:07;13.15;;;11.25;;
24008;SDS011;12217;50.792;4.372;2023-04-03T03:56:33;12.15;;;10.95;;
24008;SDS011;12217;50.792;4.372;2023-04-03T03:58:59;12.50;;;11.05;;
24008;SDS011;12217;50.792;4.372;2023-04-03T04:01:25;13.40;;;11.13;;
24008;SDS011;12217;50.792;4.372;2023-04-03T04:03:51;12.88;;;11.45;;
24008;SDS011;12217;50.792;4.372;2023-04-03T04:06:18;14.75;;;11.32;;
24008;SDS011;12217;50.792;4.372;2023-04-03T04:08:44;13.88;;;11.25;;
24008;SDS011;12217;50.792;4.372;2023-04-03T04:11:10;16.45;;;12.00;;
24008;SDS011;12217;50.792;4.372;2023-04-03T04:13:35;14.23;;;11.38;;
24008;SDS011;12217;50.792;4.372;2023-04-03T04:16:01;12.98;;;11.48;;
24008;SDS011;12217;50.792;4.372;2023-04-03T04:18:27;14.82;;;11.80;;
24008;SDS011;12217;50.792;4.372;2023-04-03T04:20:52;13.50;;;11.98;;
24008;SDS011;12217;50.792;4.372;2023-04-03T04:23:18;14.68;;;12.07;;
24008;SDS011;12217;50.792;4.372;2023-04-03T04:25:44;14.15;;;11.70;;
24008;SDS011;12217;50.792;4.372;2023-04-03T04:28:11;14.57;;;11.32;;
24008;SDS011;12217;50.792;4.372;2023-04-03T04:30:37;13.63;;;11.82;;
24008;SDS011;12217;50.792;4.372;2023-04-03T04:33:03;13.50;;;11.93;;
24008;SDS011;12217;50.792;4.372;2023-04-03T04:35:28;13.40;;;11.95;;
24008;SDS011;12217;50.792;4.372;2023-04-03T04:37:54;14.25;;;12.10;;
24008;SDS011;12217;50.792;4.372;2023-04-03T04:40:20;16.63;;;12.10;;
24008;SDS011;12217;50.792;4.372;2023-04-03T04:42:46;18.50;;;12.90;;
24008;SDS011;12217;50.792;4.372;2023-04-03T04:45:11;15.20;;;12.18;;
24008;SDS011;12217;50.792;4.372;2023-04-03T04:47:37;16.80;;;13.25;;
24008;SDS011;12217;50.792;4.372;2023-04-03T04:50:03;16.95;;;13.15;;
24008;SDS011;12217;50.792;4.372;2023-04-03T04:52:30;16.33;;;12.48;;
24008;SDS011;12217;50.792;4.372;2023-04-03T04:54:55;15.35;;;12.35;;
24008;SDS011;12217;50.792;4.372;2023-04-03T04:57:21;17.23;;;12.73;;
24008;SDS011;12217;50.792;4.372;2023-04-03T04:59:46;18.77;;;12.95;;
24008;SDS011;12217;50.792;4.372;2023-04-03T05:02:12;15.93;;;12.85;;
24008;SDS011;12217;50.792;4.372;2023-04-03T05:04:38;13.77;;;12.38;;
24008;SDS011;12217;50.792;4.372;2023-04-03T05:07:03;17.60;;;13.05;;
24008;SDS011;12217;50.792;4.372;2023-04-03T05:09:29;14.18;;;12.07;;
24008;SDS011;12217;50.792;4.372;2023-04-03T05:11:55;15.48;;;13.15;;
24008;SDS011;12217;50.792;4.372;2023-04-03T05:14:21;16.65;;;13.57;;
24008;SDS011;12217;50.792;4.372;2023-04-03T05:16:47;17.02;;;14.02;;
24008;SDS011;12217;50.792;4.372;2023-04-03T05:19:13;15.77;;;13.48;;
24008;SDS011;12217;50.792;4.372;2023-04-03T05:21:38;16.75;;;13.88;;
24008;SDS011;12217;50.792;4.372;2023-04-03T05:24:04;17.60;;;14.63;;
24008;SDS011;12217;50.792;4.372;2023-04-03T05:26:33;19.88;;;14.27;;
24008;SDS011;12217;50.792;4.372;2023-04-03T05:28:59;17.55;;;14.30;;
24008;SDS011;12217;50.792;4.372;2023-04-03T05:31:25;18.15;;;14.27;;
24008;SDS011;12217;50.792;4.372;2023-04-03T05:33:51;16.50;;;13.57;;
24008;SDS011;12217;50.792;4.372;2023-04-03T05:36:16;17.83;;;14.00;;
24008;SDS011;12217;50.792;4.372;2023-04-03T05:38:42;21.45;;;14.40;;
24008;SDS011;12217;50.792;4.372;2023-04-03T05:41:07;18.83;;;14.88;;
24008;SDS011;12217;50.792;4.372;2023-04-03T05:43:33;15.27;;;13.52;;
24008;SDS011;12217;50.792;4.372;2023-04-03T05:45:59;17.13;;;14.50;;
24008;SDS011;12217;50.792;4.372;2023-04-03T05:48:25;16.88;;;14.02;;
24008;SDS011;12217;50.792;4.372;2023-04-03T05:50:51;15.63;;;13.88;;
24008;SDS011;12217;50.792;4.372;2023-04-03T05:53:25;18.38;;;13.93;;
24008;SDS011;12217;50.792;4.372;2023-04-03T05:55:53;16.40;;;14.05;;
24008;SDS011;12217;50.792;4.372;2023-04-03T05:58:19;20.42;;;14.50;;
24008;SDS011;12217;50.792;4.372;2023-04-03T06:00:44;17.52;;;14.98;;
24008;SDS011;12217;50.792;4.372;2023-04-03T06:03:10;16.00;;;14.30;;
24008;SDS011;12217;50.792;4.372;2023-04-03T06:05:36;16.92;;;13.75;;
24008;SDS011;12217;50.792;4.372;2023-04-03T06:08:02;17.00;;;13.90;;
24008;SDS011;12217;50.792;4.372;2023-04-03T06:10:28;18.58;;;14.48;;
24008;SDS011;12217;50.792;4.372;2023-04-03T06:12:54;16.65;;;13.63;;
24008;SDS011;12217;50.792;4.372;2023-04-03T06:15:19;19.88;;;14.55;;
24008;SDS011;12217;50.792;4.372;2023-04-03T06:17:46;16.42;;;13.07;;
24008;SDS011;12217;50.792;4.372;2023-04-03T06:20:12;16.20;;;13.50;;
24008;SDS011;12217;50.792;4.372;2023-04-03T06:22:38;18.38;;;13.45;;
24008;SDS011;12217;50.792;4.372;2023-04-03T06:25:03;17.13;;;14.50;;
24008;SDS011;12217;50.792;4.372;2023-04-03T06:27:30;16.67;;;14.45;;
24008;SDS011;12217;50.792;4.372;2023-04-03T06:29:55;17.75;;;13.70;;
24008;SDS011;12217;50.792;4.372;2023-04-03T06:32:21;16.83;;;13.98;;
24008;SDS011;12217;50.792;4.372;2023-04-03T06:34:47;14.80;;;13.25;;
24008;SDS011;12217;50.792;4.372;2023-04-03T06:37:16;20.08;;;14.30;;
24008;SDS011;12217;50.792;4.372;2023-04-03T06:39:44;17.23;;;13.25;;
24008;SDS011;12217;50.792;4.372;2023-04-03T06:42:10;18.83;;;13.50;;
24008;SDS011;12217;50.792;4.372;2023-04-03T06:44:36;17.15;;;12.85;;
24008;SDS011;12217;50.792;4.372;2023-04-03T06:47:02;14.95;;;13.32;;
24008;SDS011;12217;50.792;4.372;2023-04-03T06:49:27;19.40;;;14.02;;
24008;SDS011;12217;50.792;4.372;2023-04-03T06:51:54;17.13;;;13.93;;
24008;SDS011;12217;50.792;4.372;2023-04-03T06:54:21;15.40;;;13.80;;
24008;SDS011;12217;50.792;4.372;2023-04-03T06:56:47;16.58;;;13.80;;
24008;SDS011;12217;50.792;4.372;2023-04-03T06:59:12;16.05;;;14.10;;
24008;SDS011;12217;50.792;4.372;2023-04-03T07:01:41;19.65;;;15.20;;
24008;SDS011;12217;50.792;4.372;2023-04-03T07:04:07;16.90;;;14.35;;
24008;SDS011;12217;50.792;4.372;2023-04-03T07:06:33;20.13;;;15.18;;
24008;SDS011;12217;50.792;4.372;2023-04-03T07:08:59;22.40;;;14.52;;
24008;SDS011;12217;50.792;4.372;2023-04-03T07:11:25;20.08;;;15.15;;
24008;SDS011;12217;50.792;4.372;2023-04-03T07:13:52;17.80;;;14.90;;
24008;SDS011;12217;50.792;4.372;2023-04-03T07:16:18;16.88;;;13.98;;
24008;SDS011;12217;50.792;4.372;2023-04-03T07:18:44;20.20;;;14.50;;
24008;SDS011;12217;50.792;4.372;2023-04-03T07:21:10;16.58;;;14.57;;
24008;SDS011;12217;50.792;4.372;2023-04-03T07:23:37;16.63;;;13.98;;
24008;SDS011;12217;50.792;4.372;2023-04-03T07:26:03;15.95;;;13.70;;
24008;SDS011;12217;50.792;4.372;2023-04-03T07:28:29;16.42;;;13.73;;
24008;SDS011;12217;50.792;4.372;2023-04-03T07:31:15;20.63;;;14.55;;
24008;SDS011;12217;50.792;4.372;2023-04-03T07:33:42;19.98;;;13.35;;
24008;SDS011;12217;50.792;4.372;2023-04-03T07:36:09;17.60;;;13.93;;
24008;SDS011;12217;50.792;4.372;2023-04-03T07:38:35;17.63;;;13.55;;
24008;SDS011;12217;50.792;4.372;2023-04-03T07:41:02;16.95;;;13.90;;
24008;SDS011;12217;50.792;4.372;2023-04-03T07:43:28;15.02;;;12.85;;
24008;SDS011;12217;50.792;4.372;2023-04-03T07:45:54;18.17;;;13.50;;
24008;SDS011;12217;50.792;4.372;2023-04-03T07:48:21;16.38;;;12.77;;
24008;SDS011;12217;50.792;4.372;2023-04-03T07:50:48;14.30;;;12.05;;
24008;SDS011;12217;50.792;4.372;2023-04-03T07:53:13;14.15;;;11.65;;
24008;SDS011;12217;50.792;4.372;2023-04-03T07:55:41;14.75;;;11.88;;
24008;SDS011;12217;50.792;4.372;2023-04-03T07:58:09;14.13;;;11.45;;
24008;SDS011;12217;50.792;4.372;2023-04-03T08:00:35;14.50;;;11.38;;
24008;SDS011;12217;50.792;4.372;2023-04-03T08:03:01;13.20;;;10.80;;
24008;SDS011;12217;50.792;4.372;2023-04-03T08:05:27;13.27;;;10.10;;
24008;SDS011;12217;50.792;4.372;2023-04-03T08:07:52;11.75;;;10.25;;
24008;SDS011;12217;50.792;4.372;2023-04-03T08:10:18;13.38;;;9.98;;
24008;SDS011;12217;50.792;4.372;2023-04-03T08:12:45;12.80;;;10.07;;
24008;SDS011;12217;50.792;4.372;2023-04-03T08:15:12;11.85;;;9.73;;
24008;SDS011;12217;50.792;4.372;2023-04-03T08:17:37;13.07;;;9.95;;
24008;SDS011;12217;50.792;4.372;2023-04-03T08:20:04;11.20;;;9.38;;
24008;SDS011;12217;50.792;4.372;2023-04-03T08:22:31;14.00;;;9.73;;
24008;SDS011;12217;50.792;4.372;2023-04-03T08:24:58;12.20;;;8.50;;
24008;SDS011;12217;50.792;4.372;2023-04-03T08:27:23;10.38;;;8.73;;
24008;SDS011;12217;50.792;4.372;2023-04-03T08:29:49;10.48;;;7.70;;
24008;SDS011;12217;50.792;4.372;2023-04-03T08:32:16;9.88;;;6.70;;
24008;SDS011;12217;50.792;4.372;2023-04-03T08:34:43;12.60;;;6.78;;
24008;SDS011;12217;50.792;4.372;2023-04-03T08:37:08;7.80;;;5.43;;
